Terminal Aerodrome Forecast
Issued by NWS

Home | Current Version | Previous Version | Graphics & Text | Print | Product List | Glossary On
Versions: 1 2 3 4 5 6 7 8 9 10 11 12 13 14 15
000
FTUS42 KMHX 220822 AAA
TAFPGV
TAF AMD
KPGV 220822Z 2208/2306 03008KT P6SM VCSH SCT007 BKN090
      TEMPO 2208/2210 BKN007
     FM221100 02014KT P6SM SCT015 OVC045
     FM221400 02014G24KT P6SM SCT050
     FM222300 05005KT P6SM SKC
      AMD LTD TO CLD VIS AND WIND=

USA.gov is the U.S. government's official web portal to all federal, state and local government web resources and services.